createdAt,value
2017-12-15T00:01:18.503Z,3.40
2017-12-15T00:03:46.766Z,3.40
2017-12-15T00:06:14.252Z,3.30
2017-12-15T00:08:41.755Z,3.40
2017-12-15T00:11:09.242Z,3.30
2017-12-15T00:13:37.499Z,3.30
2017-12-15T00:16:05.184Z,3.30
2017-12-15T00:18:33.439Z,3.30
2017-12-15T00:21:00.945Z,3.30
2017-12-15T00:23:28.462Z,3.30
2017-12-15T00:25:55.967Z,3.30
2017-12-15T00:28:23.458Z,3.20
2017-12-15T00:30:50.955Z,3.20
2017-12-15T00:33:19.222Z,3.20
2017-12-15T00:35:46.703Z,3.20
2017-12-15T00:38:14.213Z,3.20
2017-12-15T00:40:41.908Z,3.20
2017-12-15T00:43:10.175Z,3.10
2017-12-15T00:45:37.683Z,3.10
2017-12-15T00:48:05.174Z,3.10
2017-12-15T00:50:32.660Z,3.10
2017-12-15T00:53:00.918Z,3.10
2017-12-15T00:55:28.403Z,3.00
2017-12-15T00:57:56.661Z,3.00
2017-12-15T01:00:24.934Z,3.00
2017-12-15T01:02:52.423Z,2.90
2017-12-15T01:05:19.928Z,2.90
2017-12-15T01:07:47.439Z,2.90
2017-12-15T01:10:14.931Z,2.90
2017-12-15T01:12:42.426Z,2.80
2017-12-15T01:15:10.702Z,2.80
2017-12-15T01:17:38.207Z,2.80
2017-12-15T01:20:05.707Z,2.80
2017-12-15T01:22:33.202Z,2.80
2017-12-15T01:25:00.694Z,2.80
2017-12-15T01:27:28.204Z,2.80
2017-12-15T01:29:56.469Z,2.80
2017-12-15T01:32:23.978Z,2.80
2017-12-15T01:34:51.463Z,2.90
2017-12-15T01:37:18.955Z,2.80
2017-12-15T01:39:47.223Z,2.70
2017-12-15T01:42:15.484Z,2.70
2017-12-15T01:44:42.976Z,2.70
2017-12-15T01:47:11.243Z,2.70
2017-12-15T01:49:39.527Z,2.80
2017-12-15T01:52:07.787Z,2.70
2017-12-15T01:54:36.181Z,2.70
2017-12-15T01:57:04.439Z,2.70
2017-12-15T01:59:31.940Z,2.70
2017-12-15T02:01:59.440Z,2.80
2017-12-15T02:04:26.932Z,2.80
2017-12-15T02:06:55.199Z,2.80
2017-12-15T02:09:22.704Z,2.80
2017-12-15T02:11:50.211Z,2.90
2017-12-15T02:14:18.470Z,2.90
2017-12-15T02:16:45.961Z,2.90
2017-12-15T02:19:14.234Z,3.00
2017-12-15T02:21:42.491Z,3.00
2017-12-15T02:24:09.988Z,3.00
2017-12-15T02:26:37.499Z,3.00
2017-12-15T02:29:04.988Z,3.00
2017-12-15T02:31:32.483Z,3.00
2017-12-15T02:33:59.984Z,3.10
2017-12-15T02:36:28.271Z,3.00
2017-12-15T02:38:56.798Z,3.00
2017-12-15T02:41:24.295Z,3.00
2017-12-15T02:43:51.808Z,2.90
2017-12-15T02:46:19.303Z,2.90
2017-12-15T02:48:46.795Z,2.90
2017-12-15T02:51:15.057Z,2.90
2017-12-15T02:53:43.335Z,2.80
2017-12-15T02:56:11.610Z,2.80
2017-12-15T02:58:39.867Z,2.80
2017-12-15T03:01:07.365Z,2.80
2017-12-15T03:03:34.864Z,2.80
2017-12-15T03:06:02.568Z,2.70
2017-12-15T03:08:30.848Z,2.70
2017-12-15T03:10:59.123Z,2.60
2017-12-15T03:13:27.391Z,2.60
2017-12-15T03:15:55.651Z,2.60
2017-12-15T03:18:23.160Z,2.50
2017-12-15T03:20:50.656Z,2.50
2017-12-15T03:23:18.160Z,2.50
2017-12-15T03:25:46.424Z,2.30
2017-12-15T03:28:14.698Z,2.30
2017-12-15T03:30:42.956Z,2.20
2017-12-15T03:33:10.447Z,2.20
2017-12-15T03:35:38.104Z,2.20
2017-12-15T03:38:06.362Z,2.10
2017-12-15T03:40:33.864Z,2.10
2017-12-15T03:43:01.355Z,2.10
2017-12-15T03:45:29.052Z,2.00
2017-12-15T03:47:57.331Z,2.00
2017-12-15T03:50:25.598Z,2.00
2017-12-15T03:52:53.871Z,2.00
2017-12-15T03:55:21.380Z,1.90
2017-12-15T03:57:48.871Z,1.90
2017-12-15T04:00:16.375Z,1.90
2017-12-15T04:02:43.863Z,1.80
2017-12-15T04:05:11.374Z,1.80
2017-12-15T04:07:39.740Z,1.70
2017-12-15T04:10:08.004Z,1.70
2017-12-15T04:12:35.495Z,1.70
2017-12-15T04:15:02.987Z,1.70
2017-12-15T04:17:30.491Z,1.70
2017-12-15T04:19:58.817Z,1.80
2017-12-15T04:22:27.032Z,1.80
2017-12-15T04:24:54.538Z,1.80
2017-12-15T04:27:22.047Z,1.90
2017-12-15T04:29:51.058Z,1.80
2017-12-15T04:32:19.327Z,1.80
2017-12-15T04:34:46.829Z,1.80
2017-12-15T04:37:14.319Z,1.80
2017-12-15T04:39:41.827Z,1.80
2017-12-15T04:42:10.109Z,1.70
2017-12-15T04:44:37.608Z,1.70
2017-12-15T04:47:05.109Z,1.70
2017-12-15T04:49:33.391Z,1.70
2017-12-15T04:52:01.659Z,1.70
2017-12-15T04:54:29.911Z,1.70
2017-12-15T04:56:57.398Z,1.70
2017-12-15T04:59:25.671Z,1.70
2017-12-15T05:01:53.945Z,1.70
2017-12-15T05:04:22.203Z,1.70
2017-12-15T05:06:49.707Z,1.70
2017-12-15T05:09:17.194Z,1.70
2017-12-15T05:11:44.709Z,1.70
2017-12-15T05:14:12.223Z,1.70
2017-12-15T05:16:39.715Z,1.70
2017-12-15T05:19:08.196Z,1.70
2017-12-15T05:21:36.461Z,1.70
2017-12-15T05:24:04.720Z,1.70
2017-12-15T05:26:32.211Z,1.70
2017-12-15T05:29:00.471Z,1.60
2017-12-15T05:31:28.739Z,1.70
2017-12-15T05:33:56.243Z,1.70
2017-12-15T05:36:23.739Z,1.70
2017-12-15T05:38:51.234Z,1.70
2017-12-15T05:41:19.506Z,1.70
2017-12-15T05:43:47.767Z,1.70
2017-12-15T05:46:15.268Z,1.70
2017-12-15T05:48:42.787Z,1.70
2017-12-15T05:51:10.284Z,1.70
2017-12-15T05:53:37.779Z,1.70
2017-12-15T05:56:05.291Z,1.70
2017-12-15T05:58:32.788Z,1.60
2017-12-15T06:01:00.285Z,1.60
2017-12-15T06:03:28.635Z,1.80
2017-12-15T06:05:56.252Z,1.80
2017-12-15T06:08:23.751Z,1.90
2017-12-15T06:10:51.256Z,1.90
2017-12-15T06:13:19.511Z,2.10
2017-12-15T06:15:47.006Z,2.10
2017-12-15T06:18:14.516Z,2.10
2017-12-15T06:20:42.012Z,2.10
2017-12-15T06:23:09.523Z,2.10
2017-12-15T06:25:37.041Z,2.10
2017-12-15T06:28:04.560Z,2.10
2017-12-15T06:30:32.059Z,2.10
2017-12-15T06:32:59.571Z,2.10
2017-12-15T06:35:27.074Z,2.20
2017-12-15T06:37:54.608Z,2.10
2017-12-15T06:40:22.912Z,2.10
2017-12-15T06:42:51.155Z,2.10
2017-12-15T06:45:19.556Z,2.00
2017-12-15T06:47:47.051Z,2.00
2017-12-15T06:50:14.554Z,2.00
2017-12-15T06:52:42.836Z,2.10
2017-12-15T06:55:11.093Z,2.10
2017-12-15T06:57:38.767Z,2.10
2017-12-15T07:00:07.031Z,2.20
2017-12-15T07:02:34.707Z,2.10
2017-12-15T07:05:02.968Z,2.30
2017-12-15T07:07:30.464Z,2.30
2017-12-15T07:09:57.975Z,2.40
2017-12-15T07:12:25.477Z,2.50
2017-12-15T07:14:52.972Z,2.50
2017-12-15T07:17:20.510Z,2.60
2017-12-15T07:19:48.001Z,2.80
2017-12-15T07:22:15.499Z,2.90
2017-12-15T07:24:43.880Z,3.20
2017-12-15T07:27:12.139Z,3.40
2017-12-15T07:29:40.420Z,3.50
2017-12-15T07:32:08.697Z,3.70
2017-12-15T07:34:36.966Z,3.80
2017-12-15T07:37:05.247Z,4.00
2017-12-15T07:39:33.575Z,4.10
2017-12-15T07:42:01.055Z,4.10
2017-12-15T07:44:28.543Z,4.10
2017-12-15T07:46:56.820Z,4.30
2017-12-15T07:49:25.080Z,4.30
2017-12-15T07:51:53.359Z,4.30
2017-12-15T07:54:20.859Z,4.30
2017-12-15T07:56:48.364Z,4.40
2017-12-15T07:59:16.067Z,4.40
2017-12-15T08:01:43.567Z,4.40
2017-12-15T08:04:11.073Z,4.40
2017-12-15T08:06:39.343Z,4.40
2017-12-15T08:09:07.596Z,4.30
2017-12-15T08:11:35.112Z,4.30
2017-12-15T08:14:02.608Z,4.40
2017-12-15T08:16:30.100Z,4.40
2017-12-15T08:18:58.368Z,4.30
2017-12-15T08:21:26.663Z,4.30
2017-12-15T08:23:54.163Z,4.30
2017-12-15T08:26:21.652Z,4.30
2017-12-15T08:28:49.147Z,4.50
2017-12-15T08:31:16.665Z,4.50
2017-12-15T08:33:44.166Z,4.60
2017-12-15T08:36:11.671Z,4.60
2017-12-15T08:38:39.185Z,4.70
2017-12-15T08:41:06.675Z,4.80
2017-12-15T08:43:34.423Z,4.90
2017-12-15T08:46:01.943Z,5.00
2017-12-15T08:48:30.267Z,5.00
2017-12-15T08:50:57.762Z,5.00
2017-12-15T08:53:26.107Z,5.00
2017-12-15T08:55:53.879Z,5.00
2017-12-15T08:58:21.662Z,5.00
2017-12-15T09:00:49.932Z,5.20
2017-12-15T09:03:17.422Z,5.20
2017-12-15T09:05:45.675Z,5.50
2017-12-15T09:08:13.171Z,5.40
2017-12-15T09:10:40.667Z,5.50
2017-12-15T09:13:08.175Z,5.60
2017-12-15T09:15:35.679Z,5.70
2017-12-15T09:18:03.172Z,5.80
2017-12-15T09:20:31.431Z,6.00
2017-12-15T09:22:58.940Z,6.00
2017-12-15T09:25:26.431Z,6.10
2017-12-15T09:27:53.919Z,6.20
2017-12-15T09:30:21.510Z,6.30
2017-12-15T09:32:49.971Z,6.60
2017-12-15T09:35:18.240Z,6.70
2017-12-15T09:37:46.836Z,6.80
2017-12-15T09:40:15.091Z,6.80
2017-12-15T09:42:42.583Z,6.70
2017-12-15T09:45:10.091Z,6.80
2017-12-15T09:47:37.603Z,7.00
2017-12-15T09:50:05.099Z,7.00
2017-12-15T09:52:32.618Z,7.00
2017-12-15T09:55:00.114Z,6.90
2017-12-15T09:57:27.623Z,6.90
2017-12-15T09:59:55.888Z,7.00
2017-12-15T10:02:24.143Z,7.10
2017-12-15T10:04:52.900Z,7.10
2017-12-15T10:07:20.495Z,7.20
2017-12-15T10:09:47.985Z,7.30
2017-12-15T10:12:16.235Z,7.50
2017-12-15T10:14:43.756Z,7.50
2017-12-15T10:17:11.263Z,7.50
2017-12-15T10:19:39.518Z,7.80
2017-12-15T10:22:07.024Z,7.70
2017-12-15T10:24:34.748Z,7.80
2017-12-15T10:27:02.299Z,7.90
2017-12-15T10:29:31.296Z,7.90
2017-12-15T10:31:58.784Z,7.90
2017-12-15T10:34:27.055Z,8.00
2017-12-15T10:36:55.320Z,7.90
2017-12-15T10:39:23.580Z,7.90
2017-12-15T10:41:51.268Z,7.90
2017-12-15T10:44:19.747Z,7.90
2017-12-15T10:46:48.024Z,7.90
2017-12-15T10:49:16.289Z,7.90
2017-12-15T10:51:44.552Z,7.80
2017-12-15T10:54:12.043Z,7.80
2017-12-15T10:56:40.304Z,7.90
2017-12-15T10:59:08.571Z,8.00
2017-12-15T11:01:36.068Z,8.00
2017-12-15T11:04:03.579Z,8.00
2017-12-15T11:06:31.068Z,8.00
2017-12-15T11:08:59.536Z,8.10
2017-12-15T11:11:27.908Z,8.20
2017-12-15T11:13:56.171Z,8.10
2017-12-15T11:16:23.678Z,8.10
2017-12-15T11:18:51.165Z,8.10
2017-12-15T11:21:18.721Z,8.20
2017-12-15T11:23:46.211Z,8.20
2017-12-15T11:26:13.771Z,8.10
2017-12-15T11:28:41.272Z,8.00
2017-12-15T11:31:08.779Z,8.10
2017-12-15T11:33:37.775Z,8.00
2017-12-15T11:36:05.267Z,8.00
2017-12-15T11:38:33.532Z,7.90
2017-12-15T11:41:01.787Z,8.00
2017-12-15T11:43:29.299Z,8.00
2017-12-15T11:45:56.800Z,8.10
2017-12-15T11:48:24.312Z,8.10
2017-12-15T11:50:51.818Z,8.10
2017-12-15T11:53:19.316Z,8.10
2017-12-15T11:55:46.819Z,8.20
2017-12-15T11:58:14.319Z,8.10
2017-12-15T12:00:42.604Z,7.90
2017-12-15T12:03:11.315Z,7.90
2017-12-15T12:05:41.670Z,7.80
2017-12-15T12:08:09.348Z,7.80
2017-12-15T12:10:36.855Z,7.80
2017-12-15T12:13:04.365Z,7.70
2017-12-15T12:15:32.622Z,7.60
2017-12-15T12:18:00.120Z,7.60
2017-12-15T12:20:28.379Z,7.50
2017-12-15T12:22:56.655Z,7.40
2017-12-15T12:25:24.147Z,7.40
2017-12-15T12:27:51.687Z,7.40
2017-12-15T12:30:19.951Z,7.40
2017-12-15T12:32:47.457Z,7.40
2017-12-15T12:35:14.943Z,7.40
2017-12-15T12:37:42.671Z,7.40
2017-12-15T12:40:11.023Z,7.40
2017-12-15T12:42:39.299Z,7.30
2017-12-15T12:45:07.572Z,7.40
2017-12-15T12:47:35.826Z,7.30
2017-12-15T12:50:03.323Z,7.30
2017-12-15T12:52:30.935Z,7.40
2017-12-15T12:54:58.458Z,7.40
2017-12-15T12:57:25.955Z,7.40
2017-12-15T12:59:53.447Z,7.40
2017-12-15T13:02:21.822Z,7.30
2017-12-15T13:04:50.075Z,7.40
2017-12-15T13:07:18.344Z,7.50
2017-12-15T13:09:45.830Z,7.50
2017-12-15T13:12:14.121Z,7.40
2017-12-15T13:14:42.390Z,7.30
2017-12-15T13:17:10.649Z,7.30
2017-12-15T13:19:38.154Z,7.30
2017-12-15T13:22:05.654Z,7.40
2017-12-15T13:24:33.147Z,7.40
2017-12-15T13:27:00.660Z,7.40
2017-12-15T13:29:28.152Z,7.30
2017-12-15T13:31:56.432Z,7.30
2017-12-15T13:34:24.697Z,7.20
2017-12-15T13:36:52.960Z,7.20
2017-12-15T13:39:20.465Z,7.20
2017-12-15T13:41:47.959Z,7.20
2017-12-15T13:44:15.451Z,7.10
2017-12-15T13:46:43.717Z,7.10
2017-12-15T13:49:11.226Z,7.10
2017-12-15T13:51:38.715Z,7.10
2017-12-15T13:54:06.218Z,7.00
2017-12-15T13:56:34.488Z,7.00
2017-12-15T13:59:02.748Z,6.90
2017-12-15T14:01:30.318Z,6.90
2017-12-15T14:03:58.680Z,6.80
2017-12-15T14:06:26.187Z,6.80
2017-12-15T14:08:53.678Z,6.80
2017-12-15T14:11:21.187Z,6.80
2017-12-15T14:13:48.692Z,6.70
2017-12-15T14:16:16.187Z,6.70
2017-12-15T14:18:44.459Z,6.60
2017-12-15T14:21:12.720Z,6.60
2017-12-15T14:23:40.223Z,6.60
2017-12-15T14:26:07.724Z,6.60
2017-12-15T14:28:35.419Z,6.60
2017-12-15T14:31:03.675Z,6.50
2017-12-15T14:33:31.186Z,6.50
2017-12-15T14:35:58.684Z,6.50
2017-12-15T14:38:26.171Z,6.50
2017-12-15T14:40:54.423Z,6.50
2017-12-15T14:43:22.115Z,6.50
2017-12-15T14:45:50.378Z,6.60
2017-12-15T14:48:18.635Z,6.60
2017-12-15T14:50:46.139Z,6.60
2017-12-15T14:53:13.627Z,6.50
2017-12-15T14:55:41.122Z,6.50
2017-12-15T14:58:08.611Z,6.50
2017-12-15T15:00:36.129Z,6.50
2017-12-15T15:03:04.391Z,6.50
2017-12-15T15:05:31.907Z,6.50
2017-12-15T15:07:59.400Z,6.40
2017-12-15T15:10:26.892Z,6.40
2017-12-15T15:12:54.391Z,6.40
2017-12-15T15:15:21.899Z,6.40
2017-12-15T15:17:49.402Z,6.40
2017-12-15T15:20:16.891Z,6.40
2017-12-15T15:22:44.400Z,6.30
2017-12-15T15:25:12.717Z,6.30
2017-12-15T15:27:40.231Z,6.30
2017-12-15T15:30:08.510Z,6.30
2017-12-15T15:32:36.772Z,6.30
2017-12-15T15:35:04.272Z,6.30
2017-12-15T15:37:31.804Z,6.30
2017-12-15T15:40:00.068Z,6.30
2017-12-15T15:42:28.347Z,6.30
2017-12-15T15:44:56.604Z,6.20
2017-12-15T15:47:24.116Z,6.20
2017-12-15T15:49:51.855Z,6.20
2017-12-15T15:52:20.115Z,6.20
2017-12-15T15:54:47.619Z,6.20
2017-12-15T15:57:15.186Z,6.20
2017-12-15T15:59:42.687Z,6.20
2017-12-15T16:02:10.231Z,6.20
2017-12-15T16:04:37.730Z,6.20
2017-12-15T16:07:05.268Z,6.10
2017-12-15T16:09:32.772Z,6.20
2017-12-15T16:12:00.301Z,6.20
2017-12-15T16:14:27.784Z,6.20
2017-12-15T16:16:55.277Z,6.20
2017-12-15T16:19:22.980Z,6.20
2017-12-15T16:21:51.262Z,6.10
2017-12-15T16:24:19.526Z,6.10
2017-12-15T16:26:47.796Z,6.10
2017-12-15T16:29:16.063Z,6.10
2017-12-15T16:31:43.742Z,6.00
2017-12-15T16:34:12.035Z,5.90
2017-12-15T16:36:39.531Z,5.90
2017-12-15T16:39:07.031Z,5.90
2017-12-15T16:41:35.314Z,5.90
2017-12-15T16:44:03.576Z,5.90
2017-12-15T16:46:31.084Z,5.90
2017-12-15T16:48:58.597Z,5.90
2017-12-15T16:51:26.884Z,5.90
2017-12-15T16:53:55.159Z,5.90
2017-12-15T16:56:23.443Z,5.80
2017-12-15T16:58:51.714Z,5.80
2017-12-15T17:01:19.971Z,5.80
2017-12-15T17:03:47.479Z,5.80
2017-12-15T17:06:14.979Z,5.70
2017-12-15T17:08:42.491Z,5.70
2017-12-15T17:11:10.123Z,5.70
2017-12-15T17:13:38.384Z,5.70
2017-12-15T17:16:05.876Z,5.70
2017-12-15T17:18:33.507Z,5.60
2017-12-15T17:21:01.775Z,5.60
2017-12-15T17:23:29.289Z,5.60
2017-12-15T17:25:56.779Z,5.60
2017-12-15T17:28:24.324Z,5.60
2017-12-15T17:30:51.847Z,5.60
2017-12-15T17:33:19.343Z,5.60
2017-12-15T17:35:46.869Z,5.60
2017-12-15T17:38:14.397Z,5.50
2017-12-15T17:40:42.665Z,5.50
2017-12-15T17:43:10.168Z,5.50
2017-12-15T17:45:37.685Z,5.50
2017-12-15T17:48:05.215Z,5.50
2017-12-15T17:50:32.707Z,5.50
2017-12-15T17:53:00.965Z,5.50
2017-12-15T17:55:28.467Z,5.50
2017-12-15T17:57:55.960Z,5.50
2017-12-15T18:00:23.492Z,5.50
2017-12-15T18:02:50.987Z,5.50
2017-12-15T18:05:18.484Z,5.40
2017-12-15T18:07:46.800Z,5.30
2017-12-15T18:10:14.300Z,5.30
2017-12-15T18:12:41.803Z,5.30
2017-12-15T18:15:09.331Z,5.30
2017-12-15T18:17:37.595Z,5.30
2017-12-15T18:20:06.594Z,5.30
2017-12-15T18:22:35.095Z,5.30
2017-12-15T18:25:02.583Z,5.30
2017-12-15T18:27:30.098Z,5.30
2017-12-15T18:29:58.368Z,5.30
2017-12-15T18:32:26.645Z,5.30
2017-12-15T18:34:54.902Z,5.30
2017-12-15T18:37:22.399Z,5.30
2017-12-15T18:39:49.905Z,5.30
2017-12-15T18:42:17.407Z,5.30
2017-12-15T18:44:45.673Z,5.20
2017-12-15T18:47:13.931Z,5.20
2017-12-15T18:49:41.423Z,5.20
2017-12-15T18:52:08.925Z,5.10
2017-12-15T18:54:36.424Z,5.10
2017-12-15T18:57:04.687Z,5.00
2017-12-15T18:59:32.179Z,5.00
2017-12-15T19:01:59.711Z,5.00
2017-12-15T19:04:27.587Z,5.00
2017-12-15T19:06:55.847Z,5.00
2017-12-15T19:09:23.383Z,4.90
2017-12-15T19:11:50.883Z,5.00
2017-12-15T19:14:19.147Z,4.90
2017-12-15T19:16:46.646Z,4.90
2017-12-15T19:19:14.148Z,4.80
2017-12-15T19:21:41.798Z,4.80
2017-12-15T19:24:09.464Z,4.80
2017-12-15T19:26:37.029Z,4.80
2017-12-15T19:29:04.562Z,4.80
2017-12-15T19:31:32.071Z,4.80
2017-12-15T19:34:00.331Z,4.80
2017-12-15T19:36:27.910Z,4.70
2017-12-15T19:38:56.208Z,4.70
2017-12-15T19:41:23.781Z,4.70
2017-12-15T19:43:51.313Z,4.70
2017-12-15T19:46:18.894Z,4.70
2017-12-15T19:48:46.407Z,4.70
2017-12-15T19:51:14.014Z,4.70
2017-12-15T19:53:42.295Z,4.60
2017-12-15T19:56:09.813Z,4.60
2017-12-15T19:58:38.076Z,4.60
2017-12-15T20:01:05.664Z,4.60
2017-12-15T20:03:33.207Z,4.60
2017-12-15T20:06:00.717Z,4.60
2017-12-15T20:08:28.211Z,4.60
2017-12-15T20:10:55.951Z,4.50
2017-12-15T20:13:23.488Z,4.50
2017-12-15T20:15:51.027Z,4.40
2017-12-15T20:18:19.295Z,4.40
2017-12-15T20:20:46.847Z,4.30
2017-12-15T20:23:14.385Z,4.40
2017-12-15T20:25:41.899Z,4.40
2017-12-15T20:28:09.416Z,4.40
2017-12-15T20:30:36.918Z,4.40
2017-12-15T20:33:04.412Z,4.40
2017-12-15T20:35:31.907Z,4.40
2017-12-15T20:38:00.255Z,4.40
2017-12-15T20:40:27.949Z,4.40
2017-12-15T20:42:56.211Z,4.40
2017-12-15T20:45:24.474Z,4.40
2017-12-15T20:47:51.984Z,4.40
2017-12-15T20:50:19.519Z,4.40
2017-12-15T20:52:47.786Z,4.40
2017-12-15T20:55:16.055Z,4.30
2017-12-15T20:57:43.551Z,4.30
2017-12-15T21:00:11.191Z,4.30
2017-12-15T21:02:39.455Z,4.30
2017-12-15T21:05:07.758Z,4.30
2017-12-15T21:07:35.254Z,4.30
2017-12-15T21:10:02.764Z,4.20
2017-12-15T21:12:31.023Z,4.20
2017-12-15T21:14:59.292Z,4.20
2017-12-15T21:17:26.788Z,4.20
2017-12-15T21:19:54.279Z,4.20
2017-12-15T21:22:21.772Z,4.20
2017-12-15T21:24:49.308Z,4.20
2017-12-15T21:27:16.788Z,4.20
2017-12-15T21:29:44.283Z,4.10
2017-12-15T21:32:11.811Z,4.10
2017-12-15T21:34:40.072Z,4.10
2017-12-15T21:37:07.561Z,4.10
2017-12-15T21:39:35.077Z,4.10
2017-12-15T21:42:02.567Z,4.10
2017-12-15T21:44:31.159Z,4.10
2017-12-15T21:46:59.432Z,4.00
2017-12-15T21:49:27.904Z,4.00
2017-12-15T21:51:56.171Z,4.10
2017-12-15T21:54:23.669Z,4.10
2017-12-15T21:56:51.162Z,4.10
2017-12-15T21:59:18.651Z,4.10
2017-12-15T22:01:46.963Z,4.10
2017-12-15T22:04:14.478Z,4.10
2017-12-15T22:06:41.992Z,4.10
2017-12-15T22:09:09.484Z,4.10
2017-12-15T22:11:36.995Z,4.10
2017-12-15T22:14:04.483Z,4.20
2017-12-15T22:16:31.991Z,4.20
2017-12-15T22:18:59.503Z,4.20
2017-12-15T22:21:27.011Z,4.20
2017-12-15T22:23:55.311Z,4.20
2017-12-15T22:26:22.806Z,4.20
2017-12-15T22:41:59.714Z,4.50
2017-12-15T22:44:27.251Z,4.50
2017-12-15T22:46:55.515Z,4.40
2017-12-15T22:49:23.011Z,4.40
2017-12-15T22:51:50.659Z,4.40
2017-12-15T22:54:18.923Z,4.30
2017-12-15T22:56:47.415Z,4.30
2017-12-15T22:59:15.687Z,4.30
2017-12-15T23:01:43.950Z,4.20
2017-12-15T23:04:11.471Z,4.20
2017-12-15T23:06:38.970Z,4.20
2017-12-15T23:09:06.463Z,4.20
2017-12-15T23:11:33.979Z,4.20
2017-12-15T23:14:01.475Z,4.10
2017-12-15T23:16:28.975Z,4.10
2017-12-15T23:18:56.467Z,4.10
2017-12-15T23:21:24.739Z,4.10
2017-12-15T23:23:52.238Z,4.10
2017-12-15T23:26:19.759Z,4.10
2017-12-15T23:28:48.043Z,4.10
2017-12-15T23:31:16.320Z,4.10
2017-12-15T23:33:44.576Z,4.10
2017-12-15T23:36:12.084Z,4.10
2017-12-15T23:38:39.591Z,4.20
2017-12-15T23:41:07.088Z,4.20
2017-12-15T23:43:34.588Z,4.20
2017-12-15T23:46:02.133Z,4.20
2017-12-15T23:48:29.619Z,4.10
2017-12-15T23:50:57.118Z,4.10
2017-12-15T23:53:24.620Z,4.10
2017-12-15T23:56:03.924Z,4.10
2017-12-15T23:58:31.438Z,4.00
